Time;durP1;ratioP1;P1;durP2;ratioP2;P2;SDS_P1;SDS_P2;PMS_P1;PMS_P2;Temp;Humidity;BMP_temperature;BMP_pressure;BME280_temperature;BME280_humidity;BME280_pressure;Samples;Min_cycle;Max_cycle;Signal;HPM_P1;HPM_P2
2021/08/04 00:00:51;;;;;;;5.23;4.73;;;15.30;99.90;;;;;;5006731;28;20488;-73
2021/08/04 00:03:17;;;;;;;5.17;4.77;;;15.40;99.90;;;;;;5008235;28;21142;-72
2021/08/04 00:05:43;;;;;;;6.10;4.97;;;15.30;99.90;;;;;;5007689;28;20450;-72
2021/08/04 00:08:08;;;;;;;6.80;5.57;;;15.30;99.90;;;;;;5006759;28;20556;-72
2021/08/04 00:10:34;;;;;;;5.37;4.87;;;15.30;99.90;;;;;;5010026;28;20230;-73
2021/08/04 00:13:00;;;;;;;6.07;4.90;;;15.30;99.90;;;;;;5010935;28;20679;-73
2021/08/04 00:15:25;;;;;;;4.80;4.30;;;15.40;99.90;;;;;;5014507;28;20184;-72
2021/08/04 00:17:51;;;;;;;5.73;4.63;;;15.40;99.90;;;;;;5013337;28;20188;-73
2021/08/04 00:20:17;;;;;;;5.83;5.20;;;15.30;99.90;;;;;;5007603;28;20222;-73
2021/08/04 00:22:43;;;;;;;5.20;4.70;;;15.30;99.90;;;;;;5009878;28;20485;-72
2021/08/04 00:25:10;;;;;;;7.47;4.87;;;15.20;99.90;;;;;;5010870;28;20243;-73
2021/08/04 00:27:35;;;;;;;6.00;5.40;;;15.10;99.90;;;;;;5012547;28;20493;-72
2021/08/04 00:30:02;;;;;;;6.73;5.23;;;15.10;99.90;;;;;;5017171;28;20685;-73
2021/08/04 00:32:28;;;;;;;6.73;5.33;;;15.10;99.90;;;;;;5013470;28;20199;-73
2021/08/04 00:34:54;;;;;;;7.80;5.83;;;15.20;99.90;;;;;;5015610;28;20446;-72
2021/08/04 00:37:20;;;;;;;6.70;6.10;;;15.30;99.90;;;;;;5013005;28;20199;-72
2021/08/04 00:39:46;;;;;;;6.70;6.10;;;15.20;99.90;;;;;;5017040;28;20214;-71
2021/08/04 00:42:12;;;;;;;9.53;7.37;;;15.30;99.90;;;;;;5028343;28;20442;-72
2021/08/04 00:44:38;;;;;;;7.53;6.83;;;15.30;99.90;;;;;;5017456;28;20447;-72
2021/08/04 00:47:05;;;;;;;7.53;6.77;;;15.40;99.90;;;;;;5012384;28;21062;-71
2021/08/04 00:49:33;;;;;;;9.60;6.93;;;15.30;99.90;;;;;;5015997;28;20443;-72
2021/08/04 00:51:59;;;;;;;7.37;5.90;;;15.40;99.90;;;;;;5014887;28;20903;-72
2021/08/04 00:54:24;;;;;;;6.20;5.13;;;15.40;99.90;;;;;;5030910;28;21090;-71
2021/08/04 00:56:50;;;;;;;6.63;5.93;;;15.40;99.90;;;;;;5014712;28;20434;-71
2021/08/04 00:59:16;;;;;;;6.30;5.50;;;15.40;99.90;;;;;;5029339;28;20349;-71
2021/08/04 01:01:51;;;;;;;7.20;6.50;;;15.40;99.90;;;;;;5015236;28;20195;-71
2021/08/04 01:04:26;;;;;;;5.73;4.80;;;15.40;99.90;;;;;;5012592;28;20473;-71
2021/08/04 01:06:59;;;;;;;8.33;5.80;;;15.40;99.90;;;;;;5031123;28;20481;-72
2021/08/04 01:09:37;;;;;;;6.63;5.60;;;15.40;99.90;;;;;;5013157;28;20470;-71
2021/08/04 01:12:05;;;;;;;7.13;6.43;;;15.40;99.90;;;;;;5014287;28;20442;-71
2021/08/04 01:14:34;;;;;;;5.73;5.20;;;15.40;99.90;;;;;;5029164;28;20443;-71
2021/08/04 01:17:01;;;;;;;7.67;6.77;;;15.40;99.90;;;;;;5015156;28;21006;-71
2021/08/04 01:19:48;;;;;;;8.53;6.57;;;15.20;99.90;;;;;;5012483;28;20447;-71
2021/08/04 01:22:21;;;;;;;7.43;6.73;;;15.30;99.90;;;;;;5009636;28;20462;-72
2021/08/04 01:24:59;;;;;;;8.33;6.77;;;15.30;99.90;;;;;;5027602;28;20455;-72
2021/08/04 01:27:26;;;;;;;6.80;6.20;;;15.30;99.90;;;;;;5015116;28;20459;-72
2021/08/04 01:29:53;;;;;;;8.10;6.10;;;15.40;99.90;;;;;;5011115;28;20446;-71
2021/08/04 01:32:20;;;;;;;10.43;6.50;;;15.40;99.90;;;;;;5011629;28;21100;-72
2021/08/04 01:34:47;;;;;;;10.83;6.07;;;15.40;99.90;;;;;;5015806;28;20482;-72
2021/08/04 01:37:14;;;;;;;6.80;6.20;;;15.50;99.90;;;;;;5008392;28;21470;-71
2021/08/04 01:39:40;;;;;;;6.53;5.90;;;15.40;99.90;;;;;;5014099;28;20549;-71
2021/08/04 01:42:06;;;;;;;6.80;6.10;;;15.40;99.90;;;;;;5031684;28;20452;-72
2021/08/04 01:44:34;;;;;;;7.80;7.00;;;15.40;99.90;;;;;;5016661;28;20888;-71
2021/08/04 01:47:00;;;;;;;7.63;6.90;;;15.40;99.90;;;;;;5016712;28;20517;-72
2021/08/04 01:49:30;;;;;;;7.30;6.50;;;15.40;99.90;;;;;;5014241;28;20968;-71
2021/08/04 01:51:57;;;;;;;8.17;6.53;;;15.40;99.90;;;;;;5010490;28;20447;-72
2021/08/04 01:54:25;;;;;;;8.00;6.90;;;15.30;99.90;;;;;;5008169;28;20545;-72
2021/08/04 01:56:51;;;;;;;10.90;7.17;;;15.40;99.90;;;;;;5014388;28;20464;-71
2021/08/04 01:59:22;;;;;;;7.03;6.33;;;15.40;99.90;;;;;;5009876;28;20498;-72
2021/08/04 02:01:48;;;;;;;9.10;7.90;;;15.40;99.90;;;;;;5013177;28;20450;-72
2021/08/04 02:04:13;;;;;;;12.70;8.03;;;15.30;99.90;;;;;;5013511;28;20809;-72
2021/08/04 02:06:52;;;;;;;8.83;7.47;;;15.20;99.90;;;;;;5012697;28;20630;-72
2021/08/04 02:09:33;;;;;;;7.67;6.37;;;15.20;99.90;;;;;;5013866;28;20453;-72
2021/08/04 02:12:07;;;;;;;6.17;5.57;;;15.40;99.90;;;;;;5010850;28;20454;-72
2021/08/04 02:14:52;;;;;;;10.13;6.80;;;15.40;99.90;;;;;;5027737;28;20442;-72
2021/08/04 02:17:26;;;;;;;9.03;7.00;;;15.50;99.90;;;;;;5013630;28;20446;-72
2021/08/04 02:20:00;;;;;;;8.93;6.80;;;15.50;86.80;;;;;;5013203;28;20494;-72
2021/08/04 02:22:29;;;;;;;9.03;6.40;;;15.50;91.50;;;;;;5007006;28;20466;-72
2021/08/04 02:25:23;;;;;;;8.63;6.43;;;15.50;76.40;;;;;;5012949;28;21041;-71
2021/08/04 02:27:51;;;;;;;7.67;6.97;;;15.40;99.90;;;;;;5020707;28;20465;-72
2021/08/04 02:30:18;;;;;;;8.20;6.33;;;15.50;99.90;;;;;;5012661;28;20457;-71
2021/08/04 02:32:45;;;;;;;7.10;6.40;;;15.50;99.90;;;;;;5011033;28;20524;-71
2021/08/04 02:35:11;;;;;;;6.90;6.20;;;15.50;99.90;;;;;;5013415;28;20496;-72
2021/08/04 02:37:37;;;;;;;7.20;6.50;;;15.50;92.60;;;;;;5006609;28;20466;-72
2021/08/04 02:40:05;;;;;;;7.47;5.90;;;15.50;95.10;;;;;;5027443;28;20447;-72
2021/08/04 02:42:32;;;;;;;7.50;6.50;;;15.40;99.90;;;;;;5010042;28;20450;-72
2021/08/04 02:44:57;;;;;;;6.63;6.03;;;15.30;99.90;;;;;;5015408;28;20447;-72
2021/08/04 02:47:24;;;;;;;8.37;6.30;;;15.40;99.90;;;;;;5011100;28;20473;-72
2021/08/04 02:49:50;;;;;;;6.57;5.90;;;15.40;99.90;;;;;;5009547;28;20187;-72
2021/08/04 02:52:18;;;;;;;5.97;5.47;;;15.40;99.90;;;;;;5009284;28;20900;-72
2021/08/04 02:54:46;;;;;;;7.00;6.40;;;15.40;99.90;;;;;;5011053;28;20438;-72
2021/08/04 02:57:12;;;;;;;8.13;6.90;;;15.40;99.90;;;;;;5016951;28;21023;-73
2021/08/04 02:59:39;;;;;;;6.80;6.20;;;15.40;99.90;;;;;;5013910;28;20470;-72
2021/08/04 03:02:04;;;;;;;6.13;5.57;;;15.30;99.90;;;;;;5008672;28;21044;-72
2021/08/04 03:04:30;;;;;;;7.43;6.73;;;15.20;99.90;;;;;;5009441;28;20450;-72
2021/08/04 03:06:56;;;;;;;7.27;6.57;;;15.20;99.90;;;;;;5027425;28;20474;-72
2021/08/04 03:09:22;;;;;;;6.07;5.40;;;15.20;99.90;;;;;;5014726;28;20438;-72
2021/08/04 03:11:47;;;;;;;5.87;5.30;;;15.20;99.90;;;;;;5015194;28;20200;-72
2021/08/04 03:14:13;;;;;;;7.53;6.83;;;15.30;99.90;;;;;;5011915;28;20670;-72
2021/08/04 03:16:39;;;;;;;7.57;5.93;;;15.20;99.90;;;;;;5013757;28;20203;-72
2021/08/04 03:19:05;;;;;;;10.37;6.47;;;15.10;99.90;;;;;;5011441;28;20208;-72
2021/08/04 03:21:30;;;;;;;6.13;5.50;;;15.10;99.90;;;;;;5011659;28;20196;-72
2021/08/04 03:23:56;;;;;;;12.07;6.53;;;15.10;99.90;;;;;;5012887;28;20235;-72
2021/08/04 03:26:22;;;;;;;6.83;6.13;;;15.10;99.90;;;;;;5012206;28;20261;-72
2021/08/04 03:28:48;;;;;;;11.20;6.30;;;15.10;99.90;;;;;;5012405;28;20855;-72
2021/08/04 03:31:14;;;;;;;6.83;6.13;;;15.20;99.90;;;;;;5014930;28;20287;-72
2021/08/04 03:33:40;;;;;;;10.60;6.53;;;15.10;99.90;;;;;;5012623;28;20454;-72
2021/08/04 03:36:05;;;;;;;7.47;6.47;;;15.20;99.90;;;;;;5013759;28;20191;-72
2021/08/04 03:38:31;;;;;;;7.00;6.00;;;15.20;99.90;;;;;;5010007;28;20465;-72
2021/08/04 03:40:57;;;;;;;7.33;6.60;;;15.10;99.90;;;;;;5013841;28;20238;-72
2021/08/04 03:43:23;;;;;;;8.43;7.10;;;15.20;99.90;;;;;;5011294;28;20302;-72
2021/08/04 03:45:48;;;;;;;11.80;7.97;;;15.10;99.90;;;;;;5009344;28;20188;-72
2021/08/04 03:48:14;;;;;;;10.13;8.40;;;15.00;99.90;;;;;;5012628;28;21034;-72
2021/08/04 03:50:39;;;;;;;12.13;8.27;;;15.00;99.90;;;;;;5011289;28;20928;-72
2021/08/04 03:53:05;;;;;;;10.40;8.00;;;14.90;99.90;;;;;;5007731;28;20196;-72
2021/08/04 03:55:31;;;;;;;8.10;6.60;;;14.90;99.90;;;;;;5014936;28;20188;-72
2021/08/04 03:57:57;;;;;;;13.00;9.63;;;15.00;99.90;;;;;;5013496;28;20205;-72
2021/08/04 04:00:22;;;;;;;10.30;8.10;;;14.90;99.90;;;;;;5010762;28;20469;-72
2021/08/04 04:02:48;;;;;;;8.80;7.90;;;14.90;99.90;;;;;;5009462;28;20188;-72
2021/08/04 04:05:14;;;;;;;11.80;7.60;;;15.00;99.90;;;;;;5011369;28;20372;-72
2021/08/04 04:07:40;;;;;;;9.10;8.07;;;15.00;99.90;;;;;;5014128;28;20250;-72
2021/08/04 04:10:06;;;;;;;9.37;7.70;;;15.10;99.90;;;;;;5014507;28;20187;-72
2021/08/04 04:12:33;;;;;;;9.80;8.10;;;15.00;99.90;;;;;;5011323;28;20454;-71
2021/08/04 04:14:58;;;;;;;7.93;7.20;;;14.90;99.90;;;;;;5015199;28;20496;-72
2021/08/04 04:17:25;;;;;;;8.07;6.63;;;14.90;99.90;;;;;;5012248;28;20895;-72
2021/08/04 04:19:50;;;;;;;10.33;8.93;;;14.90;99.90;;;;;;5006817;28;24188;-72
2021/08/04 04:22:16;;;;;;;9.60;8.43;;;14.80;99.90;;;;;;5009560;28;20445;-72
2021/08/04 04:24:41;;;;;;;9.03;6.47;;;14.90;99.90;;;;;;5011386;28;20258;-72
2021/08/04 04:27:07;;;;;;;9.63;8.50;;;14.90;99.90;;;;;;5015112;28;20215;-72
2021/08/04 04:29:33;;;;;;;8.77;7.87;;;14.90;99.90;;;;;;5010813;28;20182;-72
2021/08/04 04:31:58;;;;;;;10.30;8.53;;;14.80;99.90;;;;;;5010607;28;20818;-72
2021/08/04 04:34:24;;;;;;;7.80;7.00;;;14.80;99.90;;;;;;5019807;28;20187;-72
2021/08/04 04:36:49;;;;;;;9.93;8.10;;;14.70;99.90;;;;;;5018956;28;20273;-71
2021/08/04 04:39:15;;;;;;;8.77;7.87;;;14.70;99.90;;;;;;5019317;28;20694;-72
2021/08/04 04:41:41;;;;;;;8.43;7.50;;;14.80;99.90;;;;;;5018856;28;20318;-72
2021/08/04 04:44:06;;;;;;;8.60;7.83;;;14.80;99.90;;;;;;5015554;28;20661;-72
2021/08/04 04:46:32;;;;;;;10.00;7.63;;;14.80;99.90;;;;;;5018933;28;20262;-72
2021/08/04 04:48:58;;;;;;;8.23;7.43;;;14.80;99.90;;;;;;5018966;28;20245;-72
2021/08/04 04:51:23;;;;;;;10.70;7.00;;;14.80;99.90;;;;;;5023214;28;20190;-72
2021/08/04 04:53:50;;;;;;;7.63;6.93;;;14.70;99.90;;;;;;5019822;28;20203;-71
2021/08/04 04:56:17;;;;;;;8.53;7.63;;;14.80;99.90;;;;;;5021902;28;20562;-72
2021/08/04 04:58:42;;;;;;;9.87;7.50;;;14.70;99.90;;;;;;5019359;28;20445;-73
2021/08/04 05:01:08;;;;;;;9.27;7.03;;;14.70;99.90;;;;;;5026452;28;20975;-72
2021/08/04 05:03:34;;;;;;;9.33;8.43;;;14.70;99.90;;;;;;5021190;28;20195;-72
2021/08/04 05:05:59;;;;;;;10.27;9.27;;;14.80;99.90;;;;;;5021575;28;20257;-71
2021/08/04 05:08:25;;;;;;;15.37;9.53;;;14.80;99.90;;;;;;5025502;28;20681;-71
2021/08/04 05:10:51;;;;;;;10.07;9.07;;;14.80;99.90;;;;;;5021706;28;20195;-71
2021/08/04 05:13:16;;;;;;;9.87;8.90;;;14.90;99.90;;;;;;5017242;28;20200;-72
2021/08/04 05:15:42;;;;;;;13.03;8.97;;;14.90;99.90;;;;;;5015776;28;20278;-71
2021/08/04 05:18:08;;;;;;;10.83;8.33;;;14.90;99.90;;;;;;5028938;28;20191;-71
2021/08/04 05:20:34;;;;;;;11.50;9.13;;;14.90;99.90;;;;;;5025894;28;20551;-71
2021/08/04 05:23:00;;;;;;;11.63;9.20;;;15.00;99.90;;;;;;5025864;28;20535;-71
2021/08/04 05:25:27;;;;;;;10.33;8.50;;;15.20;99.90;;;;;;5027445;28;20457;-71
2021/08/04 05:27:52;;;;;;;11.30;9.23;;;15.30;99.90;;;;;;5026359;28;20707;-71
2021/08/04 05:30:18;;;;;;;10.50;9.50;;;15.30;99.90;;;;;;5020007;28;20454;-72
2021/08/04 05:32:44;;;;;;;10.30;8.87;;;15.30;99.90;;;;;;5024535;28;20180;-72
2021/08/04 05:35:10;;;;;;;12.87;9.83;;;15.50;99.90;;;;;;5019682;28;20941;-72
2021/08/04 05:37:35;;;;;;;9.20;8.30;;;15.60;99.90;;;;;;5027134;28;20194;-72
2021/08/04 05:40:01;;;;;;;9.83;8.77;;;15.70;99.90;;;;;;5028909;28;20208;-73
2021/08/04 05:42:27;;;;;;;8.93;8.03;;;15.70;95.80;;;;;;5021411;28;20651;-73
2021/08/04 05:44:52;;;;;;;9.97;8.33;;;15.70;99.30;;;;;;5025551;28;20194;-72
2021/08/04 05:47:18;;;;;;;9.77;8.77;;;15.80;99.90;;;;;;5026976;28;20204;-72
2021/08/04 05:49:44;;;;;;;14.27;9.83;;;15.80;91.50;;;;;;5025095;28;20183;-72
2021/08/04 05:52:10;;;;;;;10.37;9.27;;;15.80;81.20;;;;;;5027240;28;20178;-72
2021/08/04 05:54:36;;;;;;;11.60;8.60;;;15.70;76.20;;;;;;5022809;28;20817;-72
2021/08/04 05:57:02;;;;;;;9.90;8.97;;;15.80;73.00;;;;;;5018569;28;20198;-72
2021/08/04 05:59:27;;;;;;;10.63;9.53;;;15.90;72.90;;;;;;5019574;28;20628;-72
2021/08/04 06:01:53;;;;;;;12.90;10.47;;;15.80;75.40;;;;;;5022802;28;20810;-72
2021/08/04 06:04:18;;;;;;;12.87;11.27;;;15.90;65.10;;;;;;5023270;28;20188;-72
2021/08/04 06:06:44;;;;;;;17.83;12.00;;;15.80;56.90;;;;;;5021681;28;20211;-72
2021/08/04 06:09:10;;;;;;;17.50;13.47;;;15.90;51.40;;;;;;5021226;28;20422;-72
2021/08/04 06:11:35;;;;;;;12.43;11.13;;;15.90;37.50;;;;;;5026146;28;20386;-72
2021/08/04 06:14:02;;;;;;;14.30;12.80;;;15.90;18.60;;;;;;5019743;28;20222;-73
2021/08/04 06:16:28;;;;;;;14.73;13.23;;;16.00;9.10;;;;;;5021898;28;20951;-72
2021/08/04 06:18:53;;;;;;;15.20;13.63;;;16.00;7.40;;;;;;5024093;28;20191;-72
2021/08/04 06:21:20;;;;;;;18.63;13.07;;;16.10;1.90;;;;;;5027151;28;20196;-72
2021/08/04 06:23:48;;;;;;;17.20;13.50;;;16.10;1.00;;;;;;5020453;28;20203;-72
2021/08/04 06:26:14;;;;;;;19.07;14.00;;;16.10;1.00;;;;;;5024663;28;20450;-73
2021/08/04 06:28:40;;;;;;;16.20;14.50;;;16.10;1.00;;;;;;5026337;28;20455;-72
2021/08/04 06:31:06;;;;;;;17.50;15.07;;;16.10;1.00;;;;;;5024559;28;21018;-72
2021/08/04 06:33:31;;;;;;;16.30;14.40;;;16.20;1.00;;;;;;5022221;28;20689;-72
2021/08/04 06:35:57;;;;;;;16.93;14.63;;;16.20;1.00;;;;;;5023522;28;20234;-72
2021/08/04 06:38:23;;;;;;;17.77;15.27;;;16.30;1.00;;;;;;5011775;28;20311;-72
2021/08/04 06:40:48;;;;;;;14.43;12.63;;;16.30;1.00;;;;;;5018542;28;20474;-72
2021/08/04 06:43:14;;;;;;;16.37;13.60;;;16.50;1.00;;;;;;5025254;28;20184;-72
2021/08/04 06:45:39;;;;;;;14.33;12.80;;;16.50;1.00;;;;;;5023968;28;20218;-72
2021/08/04 06:48:09;;;;;;;15.20;13.43;;;16.50;1.00;;;;;;5022940;28;20298;-72
2021/08/04 06:50:35;;;;;;;15.13;13.63;;;16.50;1.00;;;;;;5020915;28;20190;-72
2021/08/04 06:53:00;;;;;;;17.87;13.90;;;16.60;1.00;;;;;;5020717;28;20441;-73
2021/08/04 06:55:26;;;;;;;16.30;13.33;;;16.70;1.00;;;;;;5018706;28;20199;-72
2021/08/04 06:57:51;;;;;;;14.87;12.10;;;16.70;1.00;;;;;;5019686;28;20215;-72
2021/08/04 07:00:17;;;;;;;25.77;14.00;;;16.80;1.00;;;;;;5021210;28;20188;-72
2021/08/04 07:02:43;;;;;;;17.43;12.63;;;16.80;1.00;;;;;;5019489;28;20602;-73
2021/08/04 07:05:09;;;;;;;14.83;13.00;;;16.80;1.00;;;;;;5027226;28;20207;-72
2021/08/04 07:07:34;;;;;;;14.60;12.80;;;16.90;1.00;;;;;;5021361;28;20216;-72
2021/08/04 07:10:00;;;;;;;15.60;13.20;;;16.90;1.00;;;;;;5017600;28;20820;-72
2021/08/04 07:12:26;;;;;;;14.20;12.70;;;16.80;1.00;;;;;;5024748;28;20269;-73
2021/08/04 07:14:51;;;;;;;15.40;13.27;;;16.80;1.00;;;;;;5022289;28;20462;-72
2021/08/04 07:17:18;;;;;;;14.47;13.03;;;16.80;1.00;;;;;;5022664;28;20202;-72
2021/08/04 07:19:44;;;;;;;18.53;15.37;;;16.90;1.00;;;;;;5026429;28;20188;-73
2021/08/04 07:22:09;;;;;;;16.40;13.93;;;16.90;1.00;;;;;;5024299;28;20607;-73
2021/08/04 07:24:35;;;;;;;18.40;14.70;;;17.00;1.00;;;;;;5018833;28;20681;-73
2021/08/04 07:27:01;;;;;;;13.30;11.53;;;16.90;1.00;;;;;;5019992;28;20229;-73
2021/08/04 07:29:26;;;;;;;18.30;12.10;;;16.90;1.00;;;;;;5020870;28;20176;-72
2021/08/04 07:31:52;;;;;;;16.57;12.73;;;17.10;1.00;;;;;;5021186;28;20202;-73
2021/08/04 07:34:22;;;;;;;15.50;12.90;;;17.10;1.00;;;;;;5021668;28;20175;-73
2021/08/04 07:36:52;;;;;;;18.97;14.30;;;17.30;1.00;;;;;;5021732;28;20207;-72
2021/08/04 07:39:18;;;;;;;17.00;13.40;;;17.40;1.00;;;;;;5026565;28;20820;-73
2021/08/04 07:41:45;;;;;;;15.50;12.97;;;17.40;1.00;;;;;;5023126;28;20445;-72
2021/08/04 07:44:11;;;;;;;15.00;11.60;;;17.50;1.00;;;;;;5016814;28;20450;-73
2021/08/04 07:46:37;;;;;;;14.80;13.33;;;17.50;1.00;;;;;;5017408;28;20902;-73
2021/08/04 07:49:02;;;;;;;13.70;12.30;;;17.40;1.00;;;;;;5022056;28;20800;-73
2021/08/04 07:51:28;;;;;;;14.57;12.17;;;17.50;1.00;;;;;;5014542;28;20306;-72
2021/08/04 07:53:54;;;;;;;13.50;12.10;;;17.40;1.00;;;;;;5021398;28;20286;-72
2021/08/04 07:56:22;;;;;;;17.87;13.07;;;17.50;1.00;;;;;;5014496;28;20208;-73
2021/08/04 07:58:49;;;;;;;13.77;11.60;;;17.60;1.00;;;;;;5005977;28;20196;-72
2021/08/04 08:01:15;;;;;;;14.83;11.50;;;17.60;1.00;;;;;;5011047;28;20566;-74
2021/08/04 08:03:41;;;;;;;16.53;11.77;;;17.60;1.00;;;;;;5008159;28;20443;-72
2021/08/04 08:06:07;;;;;;;12.03;10.77;;;17.60;1.00;;;;;;5009011;28;20453;-72
2021/08/04 08:08:32;;;;;;;12.33;11.13;;;17.60;1.00;;;;;;5014919;28;20175;-72
2021/08/04 08:10:58;;;;;;;12.00;10.80;;;17.70;1.00;;;;;;4997279;28;20817;-72
2021/08/04 08:13:24;;;;;;;14.00;10.73;;;17.80;1.00;;;;;;5009751;28;20239;-72
2021/08/04 08:15:50;;;;;;;16.33;11.60;;;17.80;1.00;;;;;;5010228;28;20197;-72
2021/08/04 08:18:16;;;;;;;12.97;11.67;;;17.90;1.00;;;;;;5009985;28;20278;-72
2021/08/04 08:20:42;;;;;;;16.10;12.60;;;17.80;1.00;;;;;;5012676;28;20450;-72
2021/08/04 08:23:09;;;;;;;17.00;10.77;;;17.70;1.00;;;;;;5008012;28;20450;-72
2021/08/04 08:25:35;;;;;;;12.97;10.17;;;17.70;1.00;;;;;;5013735;28;20462;-73
2021/08/04 08:28:01;;;;;;;12.33;10.10;;;17.80;1.00;;;;;;5013206;28;20474;-72
2021/08/04 08:30:27;;;;;;;11.63;9.70;;;17.80;1.00;;;;;;5014651;28;20271;-72
2021/08/04 08:32:53;;;;;;;12.30;11.00;;;17.80;1.00;;;;;;5020551;28;20451;-72
2021/08/04 08:35:19;;;;;;;11.23;10.13;;;17.90;1.00;;;;;;5025818;28;20890;-72
2021/08/04 08:37:46;;;;;;;12.73;10.30;;;18.00;1.00;;;;;;5023443;28;20509;-73
2021/08/04 08:40:13;;;;;;;12.20;9.87;;;18.10;1.00;;;;;;5022539;28;20473;-72
2021/08/04 08:42:40;;;;;;;13.13;9.53;;;18.20;1.00;;;;;;5016033;28;20502;-73
2021/08/04 08:45:07;;;;;;;9.97;9.00;;;18.10;1.00;;;;;;5017103;28;20462;-72
2021/08/04 08:47:33;;;;;;;11.53;9.17;;;18.10;1.00;;;;;;5016780;28;20836;-73
2021/08/04 08:50:00;;;;;;;12.60;8.13;;;18.10;1.00;;;;;;5019126;28;20438;-73
2021/08/04 08:52:26;;;;;;;12.70;9.63;;;18.10;1.00;;;;;;5022207;28;20977;-72
2021/08/04 08:54:52;;;;;;;10.70;9.60;;;18.10;1.00;;;;;;5012739;28;20490;-73
2021/08/04 08:57:17;;;;;;;11.30;9.50;;;18.10;1.00;;;;;;5015366;28;20194;-73
2021/08/04 08:59:43;;;;;;;13.77;7.60;;;18.10;1.00;;;;;;5010426;28;20218;-73
2021/08/04 09:02:09;;;;;;;10.73;9.03;;;18.00;1.00;;;;;;5012199;28;20191;-72
2021/08/04 09:04:35;;;;;;;9.10;7.70;;;18.00;1.00;;;;;;5014279;28;20992;-72
2021/08/04 09:07:01;;;;;;;8.93;8.00;;;18.00;1.00;;;;;;5013319;28;20214;-72
2021/08/04 09:09:32;;;;;;;14.43;8.63;;;18.10;1.00;;;;;;5013958;28;20299;-72
2021/08/04 09:12:10;;;;;;;11.60;8.73;;;18.30;1.00;;;;;;5015746;28;21344;-73
2021/08/04 09:14:38;;;;;;;13.30;8.97;;;18.70;1.00;;;;;;5018337;28;20511;-73
2021/08/04 09:17:12;;;;;;;11.00;8.80;;;19.00;1.00;;;;;;5018063;28;21075;-72
2021/08/04 09:19:40;;;;;;;12.27;10.00;;;19.10;1.00;;;;;;5021043;28;20437;-71
2021/08/04 09:22:11;;;;;;;14.97;9.43;;;19.40;1.00;;;;;;5019086;28;20493;-71
2021/08/04 09:25:03;;;;;;;13.03;9.10;;;19.50;1.00;;;;;;5017484;28;20469;-71
2021/08/04 09:27:49;;;;;;;10.87;9.30;;;19.80;1.00;;;;;;5020610;28;20469;-72
2021/08/04 09:30:22;;;;;;;13.90;9.10;;;19.90;1.00;;;;;;5017598;28;20516;-72
2021/08/04 09:32:49;;;;;;;11.60;9.10;;;19.90;1.00;;;;;;5021098;28;20457;-72
2021/08/04 09:35:17;;;;;;;9.57;7.63;;;20.10;1.00;;;;;;5020950;28;20446;-72
2021/08/04 09:37:44;;;;;;;8.17;6.60;;;20.20;1.00;;;;;;5017605;28;20466;-72
2021/08/04 09:40:12;;;;;;;9.13;6.67;;;20.40;1.00;;;;;;5019724;28;20469;-72
2021/08/04 09:42:51;;;;;;;8.20;7.40;;;20.50;1.00;;;;;;5018599;28;20947;-72
2021/08/04 09:45:21;;;;;;;9.70;7.17;;;20.60;1.00;;;;;;5018640;28;20442;-72
2021/08/04 09:48:08;;;;;;;8.30;6.30;;;20.60;1.00;;;;;;5016211;28;20817;-72
2021/08/04 09:50:59;;;;;;;7.33;6.50;;;20.70;1.00;;;;;;5021051;28;20493;-72
2021/08/04 09:53:31;;;;;;;8.90;7.03;;;20.70;1.00;;;;;;5020031;28;21037;-71
2021/08/04 09:56:13;;;;;;;7.53;6.70;;;20.80;1.00;;;;;;5018496;28;20458;-72
2021/08/04 09:58:41;;;;;;;10.73;9.03;;;20.70;1.00;;;;;;5016617;28;20470;-71
2021/08/04 10:01:11;;;;;;;12.03;8.43;;;20.90;1.00;;;;;;5017306;28;20541;-73
2021/08/04 10:03:37;;;;;;;9.40;8.20;;;20.80;1.00;;;;;;5018426;28;20442;-72
2021/08/04 10:06:02;;;;;;;11.50;8.90;;;20.60;1.00;;;;;;5020885;28;20447;-72
2021/08/04 10:08:28;;;;;;;8.40;7.50;;;20.30;1.00;;;;;;5017863;28;20208;-72
2021/08/04 10:10:56;;;;;;;9.13;8.23;;;20.10;1.00;;;;;;5017816;28;20211;-72
2021/08/04 10:13:28;;;;;;;9.10;8.13;;;20.10;1.00;;;;;;5018657;28;20188;-72
2021/08/04 10:15:59;;;;;;;7.50;6.80;;;20.40;1.00;;;;;;5021433;28;20441;-72
2021/08/04 10:18:43;;;;;;;9.67;7.87;;;20.50;1.00;;;;;;5017690;28;20500;-72
2021/08/04 10:21:13;;;;;;;8.50;7.33;;;20.10;1.00;;;;;;5019742;28;20549;-74
2021/08/04 10:23:44;;;;;;;8.57;7.10;;;20.00;1.00;;;;;;5018490;28;20455;-73
2021/08/04 10:26:12;;;;;;;10.90;7.77;;;19.90;1.00;;;;;;5019622;28;20490;-72
2021/08/04 10:28:39;;;;;;;10.50;7.60;;;19.80;1.00;;;;;;5017770;28;20549;-72
2021/08/04 10:31:05;;;;;;;8.70;6.93;;;19.80;1.00;;;;;;5016547;28;21212;-72
2021/08/04 10:33:31;;;;;;;10.50;6.90;;;19.90;1.00;;;;;;5022956;28;20488;-73
2021/08/04 10:36:09;;;;;;;12.10;7.93;;;19.80;1.00;;;;;;5019545;28;20194;-72
2021/08/04 10:38:39;;;;;;;9.93;8.37;;;19.60;1.00;;;;;;5019628;28;20580;-72
2021/08/04 10:41:16;;;;;;;12.73;9.57;;;19.60;1.00;;;;;;5031107;28;21067;-72
2021/08/04 10:43:52;;;;;;;8.03;7.23;;;19.50;1.00;;;;;;5017577;28;20438;-72
2021/08/04 10:46:29;;;;;;;8.20;7.20;;;19.50;1.00;;;;;;5020509;28;20448;-72
2021/08/04 10:48:56;;;;;;;9.73;7.40;;;19.80;1.00;;;;;;5019228;28;20502;-72
2021/08/04 10:51:21;;;;;;;9.97;8.07;;;20.10;1.00;;;;;;5019694;28;20442;-72
2021/08/04 10:54:03;;;;;;;8.63;6.80;;;20.00;1.00;;;;;;5013074;28;20466;-73
2021/08/04 10:56:32;;;;;;;10.30;8.07;;;20.10;1.00;;;;;;5010686;28;20715;-72
2021/08/04 10:59:10;;;;;;;8.33;7.43;;;20.50;1.00;;;;;;5011282;28;20855;-72
2021/08/04 11:01:37;;;;;;;11.33;7.40;;;20.80;1.00;;;;;;5016034;28;20482;-72
2021/08/04 11:04:04;;;;;;;7.80;5.83;;;20.70;1.00;;;;;;5022236;28;20449;-72
2021/08/04 11:06:31;;;;;;;6.57;5.90;;;20.60;1.00;;;;;;5024928;28;20488;-72
2021/08/04 11:09:19;;;;;;;7.33;5.80;;;20.40;1.00;;;;;;5022311;28;20445;-72
2021/08/04 11:11:57;;;;;;;8.13;6.90;;;20.50;1.00;;;;;;5038433;28;20573;-72
2021/08/04 11:14:44;;;;;;;10.17;5.80;;;20.90;1.00;;;;;;5018336;28;20956;-72
2021/08/04 11:17:15;;;;;;;8.80;6.17;;;21.20;1.00;;;;;;5022764;28;20439;-72
2021/08/04 11:20:02;;;;;;;7.73;6.77;;;21.40;1.00;;;;;;5025580;28;20450;-72
2021/08/04 11:22:31;;;;;;;6.43;5.83;;;21.70;1.00;;;;;;5026098;28;20957;-72
2021/08/04 11:25:35;;;;;;;8.10;6.77;;;21.60;1.00;;;;;;5025813;28;20556;-72
2021/08/04 11:28:05;;;;;;;8.87;6.80;;;21.80;1.00;;;;;;5020786;28;20472;-73
2021/08/04 11:30:31;;;;;;;15.00;6.47;;;21.50;1.00;;;;;;5013997;28;20461;-73
2021/08/04 11:33:19;;;;;;;7.90;6.40;;;21.70;1.00;;;;;;5022786;28;20468;-72
2021/08/04 11:36:17;;;;;;;8.13;7.23;;;22.00;1.00;;;;;;5011069;28;20449;-72
2021/08/04 11:38:49;;;;;;;10.43;9.43;;;22.20;1.00;;;;;;4985714;28;20825;-73
2021/08/04 11:41:34;;;;;;;12.40;9.87;;;22.20;1.00;;;;;;5015051;28;20540;-73
2021/08/04 11:44:29;;;;;;;9.63;8.53;;;21.90;1.00;;;;;;5008379;28;20457;-73
2021/08/04 11:47:06;;;;;;;14.53;13.27;;;21.60;1.00;;;;;;5012403;28;20536;-73
2021/08/04 11:50:03;;;;;;;14.13;12.20;;;21.40;1.00;;;;;;5002785;28;20470;-72
2021/08/04 11:52:30;;;;;;;21.17;12.80;;;21.30;1.00;;;;;;5008161;28;20450;-72
2021/08/04 11:55:07;;;;;;;14.93;13.53;;;21.30;1.00;;;;;;5011115;28;21052;-72
2021/08/04 11:57:43;;;;;;;13.43;12.23;;;21.30;1.00;;;;;;5019037;28;20964;-72
2021/08/04 12:00:18;;;;;;;12.17;11.13;;;21.30;1.00;;;;;;5014002;28;20511;-72
2021/08/04 12:02:44;;;;;;;13.20;12.00;;;21.40;1.00;;;;;;5014178;28;20455;-72
2021/08/04 12:05:12;;;;;;;12.97;11.60;;;21.60;1.00;;;;;;5017278;28;20454;-72
2021/08/04 12:07:42;;;;;;;11.97;10.77;;;21.60;1.00;;;;;;5031315;28;20805;-72
2021/08/04 12:10:12;;;;;;;10.77;9.80;;;21.90;1.00;;;;;;5020301;28;20963;-72
2021/08/04 12:12:40;;;;;;;11.90;10.80;;;22.10;1.00;;;;;;5018293;28;20446;-73
2021/08/04 12:15:27;;;;;;;12.50;11.30;;;22.20;1.00;;;;;;5017556;28;20820;-72
2021/08/04 12:18:02;;;;;;;11.87;9.00;;;22.00;1.00;;;;;;5017475;28;20454;-72
2021/08/04 12:20:30;;;;;;;10.30;9.30;;;21.70;1.00;;;;;;5023464;28;20449;-72
2021/08/04 12:23:03;;;;;;;10.40;9.30;;;21.50;1.00;;;;;;5014751;28;20442;-72
2021/08/04 12:25:34;;;;;;;9.50;8.57;;;21.40;1.00;;;;;;5020083;28;20458;-73
2021/08/04 12:28:02;;;;;;;9.57;8.67;;;21.30;1.00;;;;;;5021703;28;20478;-72
2021/08/04 12:30:40;;;;;;;10.33;7.40;;;21.10;1.00;;;;;;5020918;28;20504;-72
2021/08/04 12:33:15;;;;;;;7.90;7.10;;;20.90;1.00;;;;;;5020525;28;20949;-72
2021/08/04 12:36:01;;;;;;;7.10;6.40;;;20.80;1.00;;;;;;5020241;28;20441;-71
2021/08/04 12:38:28;;;;;;;7.83;6.50;;;20.80;1.00;;;;;;5021619;28;20466;-72
2021/08/04 12:40:55;;;;;;;7.73;6.93;;;20.80;1.00;;;;;;5022243;28;20515;-72
2021/08/04 12:43:23;;;;;;;6.37;5.73;;;20.80;1.00;;;;;;5021125;28;20480;-72
2021/08/04 12:45:51;;;;;;;7.07;6.37;;;20.80;1.00;;;;;;5019113;28;20525;-72
2021/08/04 12:48:19;;;;;;;5.97;5.37;;;20.80;1.00;;;;;;5020589;28;20662;-72
2021/08/04 12:50:54;;;;;;;6.50;5.90;;;20.80;1.00;;;;;;5021217;28;20445;-72
2021/08/04 12:53:35;;;;;;;6.20;5.60;;;20.60;1.00;;;;;;5017634;28;20465;-72